Time,TemperatureF,DewpointF,PressureIn,WindDirection,WindDirectionDegrees,WindSpeedMPH,WindSpeedGustMPH,Humidity,HourlyPrecipIn,Conditions,Clouds,dailyrainin,SolarRadiationWatts/m^2,SoftwareType,DateUTC
2013-09-06 00:00:00,52.1,44.4,30.20,WNW,292,0.0,0.0,75,0.00,,,0.00,0,Wunderground v.1.15,2013-09-06 04:00:00,
2013-09-06 00:10:00,51.7,44.7,30.20,WNW,292,0.0,0.0,77,0.00,,,0.00,0,Wunderground v.1.15,2013-09-06 04:10:00,
2013-09-06 00:20:00,51.3,44.3,30.21,WNW,292,0.0,0.0,77,0.00,,,0.00,0,Wunderground v.1.15,2013-09-06 04:20:00,
2013-09-06 00:30:00,50.7,44.1,30.21,WNW,292,0.0,0.0,78,0.00,,,0.00,0,Wunderground v.1.15,2013-09-06 04:30:00,
2013-09-06 00:40:00,50.2,43.9,30.21,WNW,292,0.0,0.0,79,0.00,,,0.00,0,Wunderground v.1.15,2013-09-06 04:40:00,
2013-09-06 00:50:00,49.8,43.9,30.22,WNW,292,0.0,0.0,80,0.00,,,0.00,0,Wunderground v.1.15,2013-09-06 04:50:00,
2013-09-06 01:01:00,49.3,44.0,30.21,WNW,292,0.0,0.0,82,0.00,,,0.00,0,Wunderground v.1.15,2013-09-06 05:01:00,
2013-09-06 01:10:00,49.0,44.1,30.21,WNW,292,0.0,0.0,83,0.00,,,0.00,0,Wunderground v.1.15,2013-09-06 05:10:00,
2013-09-06 01:20:00,48.8,44.2,30.21,WNW,292,0.0,0.0,84,0.00,,,0.00,0,Wunderground v.1.15,2013-09-06 05:20:00,
2013-09-06 01:30:00,48.5,44.2,30.21,WNW,292,0.0,0.0,85,0.00,,,0.00,0,Wunderground v.1.15,2013-09-06 05:30:00,
2013-09-06 01:40:00,48.5,44.2,30.21,WNW,293,0.0,0.0,85,0.00,,,0.00,0,Wunderground v.1.15,2013-09-06 05:40:00,
2013-09-06 01:50:00,48.4,43.8,30.22,NNW,336,0.0,2.0,84,0.00,,,0.00,0,Wunderground v.1.15,2013-09-06 05:50:00,
2013-09-06 02:00:00,48.5,43.3,30.22,NNW,336,0.0,0.0,82,0.00,,,0.00,0,Wunderground v.1.15,2013-09-06 06:00:00,
2013-09-06 02:10:00,48.5,43.3,30.22,NNW,336,0.0,0.0,82,0.00,,,0.00,0,Wunderground v.1.15,2013-09-06 06:10:00,
2013-09-06 02:20:00,48.4,43.2,30.22,NW,309,1.0,1.0,82,0.00,,,0.00,0,Wunderground v.1.15,2013-09-06 06:20:00,
2013-09-06 02:30:00,48.3,43.1,30.22,NW,309,0.0,0.0,82,0.00,,,0.00,0,Wunderground v.1.15,2013-09-06 06:30:00,
2013-09-06 02:40:00,48.0,42.8,30.22,NW,309,0.0,0.0,82,0.00,,,0.00,0,Wunderground v.1.15,2013-09-06 06:40:00,
2013-09-06 02:50:00,47.6,42.7,30.22,NW,309,0.0,1.0,83,0.00,,,0.00,0,Wunderground v.1.15,2013-09-06 06:50:00,
2013-09-06 03:00:00,47.3,42.7,30.22,NW,309,0.0,0.0,84,0.00,,,0.00,0,Wunderground v.1.15,2013-09-06 07:00:00,
2013-09-06 03:10:00,47.0,42.4,30.22,NW,309,0.0,0.0,84,0.00,,,0.00,0,Wunderground v.1.15,2013-09-06 07:10:00,
2013-09-06 03:20:00,46.6,42.0,30.23,NW,309,0.0,0.0,84,0.00,,,0.00,0,Wunderground v.1.15,2013-09-06 07:20:00,
2013-09-06 03:30:00,46.1,41.8,30.23,NW,309,0.0,0.0,85,0.00,,,0.00,0,Wunderground v.1.15,2013-09-06 07:30:00,
2013-09-06 03:40:00,45.8,41.5,30.24,NW,309,0.0,0.0,85,0.00,,,0.00,0,Wunderground v.1.15,2013-09-06 07:40:00,
2013-09-06 03:50:00,45.6,42.0,30.24,NW,309,0.0,0.0,87,0.00,,,0.00,0,Wunderground v.1.15,2013-09-06 07:50:00,
2013-09-06 04:00:00,45.3,41.7,30.24,NW,309,0.0,0.0,87,0.00,,,0.00,0,Wunderground v.1.15,2013-09-06 08:00:00,
2013-09-06 04:10:00,45.1,41.5,30.24,NW,309,0.0,0.0,87,0.00,,,0.00,0,Wunderground v.1.15,2013-09-06 08:10:00,
2013-09-06 04:20:00,44.8,41.5,30.24,NW,309,0.0,0.0,88,0.00,,,0.00,0,Wunderground v.1.15,2013-09-06 08:20:00,
2013-09-06 04:30:00,44.6,41.0,30.24,NW,309,0.0,0.0,87,0.00,,,0.00,0,Wunderground v.1.15,2013-09-06 08:30:00,
2013-09-06 04:40:00,44.3,41.0,30.25,NW,309,0.0,0.0,88,0.00,,,0.00,0,Wunderground v.1.15,2013-09-06 08:40:00,
2013-09-06 04:50:00,44.2,41.2,30.25,NW,309,0.0,0.0,89,0.00,,,0.00,0,Wunderground v.1.15,2013-09-06 08:50:00,
2013-09-06 05:00:00,44.2,41.2,30.25,NW,309,0.0,0.0,89,0.00,,,0.00,0,Wunderground v.1.15,2013-09-06 09:00:00,
2013-09-06 05:10:00,44.0,41.0,30.25,NW,309,0.0,0.0,89,0.00,,,0.00,0,Wunderground v.1.15,2013-09-06 09:10:00,
2013-09-06 05:20:00,43.8,40.8,30.25,NW,309,0.0,0.0,89,0.00,,,0.00,0,Wunderground v.1.15,2013-09-06 09:20:00,
2013-09-06 05:30:00,43.6,40.9,30.25,NW,309,0.0,0.0,90,0.00,,,0.00,0,Wunderground v.1.15,2013-09-06 09:30:00,
2013-09-06 05:40:00,43.5,40.5,30.25,NW,309,0.0,0.0,89,0.00,,,0.00,0,Wunderground v.1.15,2013-09-06 09:40:00,
2013-09-06 05:50:00,43.4,40.7,30.25,NW,309,0.0,0.0,90,0.00,,,0.00,0,Wunderground v.1.15,2013-09-06 09:50:00,
2013-09-06 06:00:00,43.2,40.2,30.25,NW,309,0.0,0.0,89,0.00,,,0.00,0,Wunderground v.1.15,2013-09-06 10:00:00,
2013-09-06 06:10:00,43.0,40.0,30.26,NW,308,0.0,0.0,89,0.00,,,0.00,0,Wunderground v.1.15,2013-09-06 10:10:00,
2013-09-06 06:20:00,42.7,40.0,30.27,NW,309,0.0,0.0,90,0.00,,,0.00,0,Wunderground v.1.15,2013-09-06 10:20:00,
2013-09-06 06:30:00,42.6,39.9,30.27,NW,310,0.0,0.0,90,0.00,,,0.00,0,Wunderground v.1.15,2013-09-06 10:30:00,
2013-09-06 06:40:00,42.4,39.7,30.27,NW,310,0.0,0.0,90,0.00,,,0.00,5,Wunderground v.1.15,2013-09-06 10:40:00,
2013-09-06 06:50:00,42.2,39.5,30.27,NW,309,0.0,0.0,90,0.00,,,0.00,12,Wunderground v.1.15,2013-09-06 10:50:00,
2013-09-06 07:00:00,42.1,39.7,30.28,NW,309,0.0,0.0,91,0.00,,,0.00,19,Wunderground v.1.15,2013-09-06 11:00:00,
2013-09-06 07:10:00,42.3,39.9,30.28,NW,307,0.0,0.0,91,0.00,,,0.00,30,Wunderground v.1.15,2013-09-06 11:10:00,
2013-09-06 07:20:00,42.8,40.6,30.28,NW,306,0.0,0.0,92,0.00,,,0.00,39,Wunderground v.1.15,2013-09-06 11:20:00,
2013-09-06 07:30:00,43.4,41.5,30.28,NW,311,0.0,0.0,93,0.00,,,0.00,39,Wunderground v.1.15,2013-09-06 11:30:00,
2013-09-06 07:40:00,44.2,42.3,30.28,NW,311,0.0,0.0,93,0.00,,,0.00,56,Wunderground v.1.15,2013-09-06 11:40:00,
2013-09-06 07:50:00,45.1,43.2,30.28,NW,311,0.0,0.0,93,0.00,,,0.00,49,Wunderground v.1.15,2013-09-06 11:50:00,
2013-09-06 08:00:00,45.8,43.9,30.29,NNE,15,1.0,2.0,93,0.00,,,0.00,60,Wunderground v.1.15,2013-09-06 12:00:00,
2013-09-06 08:10:00,46.4,44.2,30.29,NNE,19,1.0,1.0,92,0.00,,,0.00,74,Wunderground v.1.15,2013-09-06 12:10:00,
2013-09-06 08:20:00,47.2,44.4,30.29,NNE,17,0.0,0.0,90,0.00,,,0.00,76,Wunderground v.1.15,2013-09-06 12:20:00,
2013-09-06 08:30:00,48.2,45.1,30.29,NNE,18,0.0,0.0,89,0.00,,,0.00,83,Wunderground v.1.15,2013-09-06 12:30:00,
2013-09-06 08:40:00,49.2,45.5,30.29,NNE,15,0.0,0.0,87,0.00,,,0.00,77,Wunderground v.1.15,2013-09-06 12:40:00,
2013-09-06 08:50:00,50.1,45.1,30.29,NW,311,1.0,1.0,83,0.00,,,0.00,62,Wunderground v.1.15,2013-09-06 12:50:00,
2013-09-06 09:00:00,51.1,45.1,30.29,NNW,331,0.0,0.0,80,0.00,,,0.00,79,Wunderground v.1.15,2013-09-06 13:00:00,
2013-09-06 09:10:00,51.8,46.2,30.29,WNW,288,1.0,1.0,81,0.00,,,0.00,253,Wunderground v.1.15,2013-09-06 13:10:00,
2013-09-06 09:20:00,52.6,46.6,30.29,WSW,251,0.0,2.0,80,0.00,,,0.00,88,Wunderground v.1.15,2013-09-06 13:20:00,
2013-09-06 09:30:00,53.3,46.3,30.29,North,360,1.0,2.0,77,0.00,,,0.00,65,Wunderground v.1.15,2013-09-06 13:30:00,
2013-09-06 09:40:00,54.2,47.5,30.29,NE,34,1.0,1.0,78,0.00,,,0.00,476,Wunderground v.1.15,2013-09-06 13:40:00,
2013-09-06 09:50:00,55.1,48.4,30.29,South,182,0.0,1.0,78,0.00,,,0.00,327,Wunderground v.1.15,2013-09-06 13:50:00,
2013-09-06 10:00:00,56.0,48.5,30.29,NW,318,1.0,1.0,76,0.00,,,0.00,592,Wunderground v.1.15,2013-09-06 14:00:00,
2013-09-06 10:10:00,57.0,48.1,30.30,SSE,155,1.0,1.0,72,0.00,,,0.00,613,Wunderground v.1.15,2013-09-06 14:10:00,
2013-09-06 10:20:00,58.2,48.1,30.30,SSE,154,0.0,0.0,69,0.00,,,0.00,638,Wunderground v.1.15,2013-09-06 14:20:00,
2013-09-06 10:30:00,59.6,44.8,30.29,NNE,12,2.0,2.0,58,0.00,,,0.00,671,Wunderground v.1.15,2013-09-06 14:30:00,
2013-09-06 10:40:00,60.5,47.8,30.29,SSE,165,1.0,1.0,63,0.00,,,0.00,686,Wunderground v.1.15,2013-09-06 14:40:00,
2013-09-06 10:50:00,61.0,46.1,30.29,North,360,0.0,2.0,58,0.00,,,0.00,722,Wunderground v.1.15,2013-09-06 14:50:00,
2013-09-06 11:00:00,61.9,42.0,30.28,NE,46,2.0,2.0,48,0.00,,,0.00,738,Wunderground v.1.15,2013-09-06 15:00:00,
2013-09-06 11:10:00,62.8,44.4,30.28,West,265,2.0,4.0,51,0.00,,,0.00,649,Wunderground v.1.15,2013-09-06 15:10:00,
2013-09-06 11:20:00,62.7,39.9,30.28,NW,305,3.0,4.0,43,0.00,,,0.00,735,Wunderground v.1.15,2013-09-06 15:20:00,
2013-09-06 11:30:00,62.8,36.8,30.28,West,279,2.0,2.0,38,0.00,,,0.00,803,Wunderground v.1.15,2013-09-06 15:30:00,
2013-09-06 11:40:00,63.4,41.1,30.27,NNW,327,1.0,1.0,44,0.00,,,0.00,738,Wunderground v.1.15,2013-09-06 15:40:00,
2013-09-06 11:50:00,64.4,40.8,30.27,NNE,23,1.0,5.0,42,0.00,,,0.00,738,Wunderground v.1.15,2013-09-06 15:50:00,
2013-09-06 12:00:00,64.3,40.1,30.27,NW,306,3.0,3.0,41,0.00,,,0.00,715,Wunderground v.1.15,2013-09-06 16:00:00,
2013-09-06 12:10:00,64.8,40.5,30.26,SSE,167,1.0,1.0,41,0.00,,,0.00,708,Wunderground v.1.15,2013-09-06 16:10:00,
2013-09-06 12:20:00,65.6,37.2,30.26,NNW,340,1.0,1.0,35,0.00,,,0.00,626,Wunderground v.1.15,2013-09-06 16:20:00,
2013-09-06 12:30:00,65.0,41.3,30.26,SSW,201,1.0,2.0,42,0.00,,,0.00,656,Wunderground v.1.15,2013-09-06 16:30:00,
2013-09-06 12:40:00,65.4,43.5,30.26,WNW,293,1.0,3.0,45,0.00,,,0.00,708,Wunderground v.1.15,2013-09-06 16:40:00,
2013-09-06 12:50:00,66.0,39.7,30.26,ENE,68,1.0,1.0,38,0.00,,,0.00,680,Wunderground v.1.15,2013-09-06 16:50:00,
2013-09-06 13:01:00,66.6,44.6,30.25,NW,315,1.0,1.0,45,0.00,,,0.00,705,Wunderground v.1.15,2013-09-06 17:01:00,
2013-09-06 13:10:00,66.5,42.7,30.25,WSW,258,0.0,2.0,42,0.00,,,0.00,677,Wunderground v.1.15,2013-09-06 17:10:00,
2013-09-06 13:20:00,66.2,44.8,30.25,WSW,240,2.0,2.0,46,0.00,,,0.00,847,Wunderground v.1.15,2013-09-06 17:20:00,
2013-09-06 13:30:00,66.4,38.6,30.24,WSW,241,1.0,2.0,36,0.00,,,0.00,798,Wunderground v.1.15,2013-09-06 17:30:00,
2013-09-06 13:40:00,66.7,38.2,30.24,North,5,1.0,1.0,35,0.00,,,0.00,828,Wunderground v.1.15,2013-09-06 17:40:00,
2013-09-06 13:50:00,67.4,42.2,30.24,WNW,287,1.0,1.0,40,0.00,,,0.00,823,Wunderground v.1.15,2013-09-06 17:50:00,
2013-09-06 14:00:00,67.1,42.6,30.23,WSW,247,2.0,2.0,41,0.00,,,0.00,51,Wunderground v.1.15,2013-09-06 18:00:00,
2013-09-06 14:10:00,66.5,36.5,30.23,WNW,282,2.0,2.0,33,0.00,,,0.00,155,Wunderground v.1.15,2013-09-06 18:10:00,
2013-09-06 14:20:00,65.9,40.9,30.22,NW,321,1.0,1.0,40,0.00,,,0.00,629,Wunderground v.1.15,2013-09-06 18:20:00,
2013-09-06 14:30:00,65.9,36.0,30.22,North,10,2.0,2.0,33,0.00,,,0.00,327,Wunderground v.1.15,2013-09-06 18:30:00,
2013-09-06 14:40:00,65.7,43.8,30.21,SSW,213,1.0,1.0,45,0.00,,,0.00,148,Wunderground v.1.15,2013-09-06 18:40:00,
2013-09-06 14:50:00,65.2,36.1,30.21,ENE,69,1.0,1.0,34,0.00,,,0.00,40,Wunderground v.1.15,2013-09-06 18:50:00,
2013-09-06 15:00:00,65.0,40.1,30.20,NNE,22,1.0,1.0,40,0.00,,,0.00,42,Wunderground v.1.15,2013-09-06 19:00:00,
2013-09-06 15:10:00,65.1,38.2,30.20,NNE,29,1.0,2.0,37,0.00,,,0.00,37,Wunderground v.1.15,2013-09-06 19:10:00,
2013-09-06 15:20:00,65.2,42.7,30.19,NW,307,0.0,0.0,44,0.00,,,0.00,35,Wunderground v.1.15,2013-09-06 19:20:00,
2013-09-06 15:30:00,64.9,41.2,30.19,North,9,1.0,2.0,42,0.00,,,0.00,35,Wunderground v.1.15,2013-09-06 19:30:00,
2013-09-06 15:40:00,65.0,38.8,30.19,NE,37,1.0,1.0,38,0.00,,,0.00,53,Wunderground v.1.15,2013-09-06 19:40:00,
2013-09-06 15:50:00,65.3,42.2,30.18,NW,323,1.0,1.0,43,0.00,,,0.00,44,Wunderground v.1.15,2013-09-06 19:50:00,
2013-09-06 16:00:00,65.3,39.7,30.18,SE,126,1.0,1.0,39,0.00,,,0.00,30,Wunderground v.1.15,2013-09-06 20:00:00,
2013-09-06 16:10:00,65.1,42.0,30.18,SW,222,1.0,1.0,43,0.00,,,0.00,60,Wunderground v.1.15,2013-09-06 20:10:00,
2013-09-06 16:20:00,64.8,44.6,30.18,North,5,0.0,0.0,48,0.00,,,0.00,33,Wunderground v.1.15,2013-09-06 20:20:00,
2013-09-06 16:30:00,64.4,40.2,30.17,NNE,15,1.0,2.0,41,0.00,,,0.00,28,Wunderground v.1.15,2013-09-06 20:30:00,
2013-09-06 16:40:00,65.3,39.0,30.17,NW,323,1.0,1.0,38,0.00,,,0.00,26,Wunderground v.1.15,2013-09-06 20:40:00,
2013-09-06 16:50:00,65.2,46.6,30.18,SSW,213,1.0,1.0,51,0.00,,,0.00,26,Wunderground v.1.15,2013-09-06 20:50:00,
2013-09-06 17:00:00,64.4,47.9,30.17,ESE,104,1.0,2.0,55,0.00,,,0.00,30,Wunderground v.1.15,2013-09-06 21:00:00,
2013-09-06 17:10:00,63.7,47.2,30.16,SE,140,1.0,1.0,55,0.00,,,0.00,25,Wunderground v.1.15,2013-09-06 21:10:00,
2013-09-06 17:20:00,63.0,46.6,30.16,NE,37,1.0,1.0,55,0.00,,,0.00,23,Wunderground v.1.15,2013-09-06 21:20:00,
2013-09-06 17:30:00,62.5,45.6,30.16,WNW,302,1.0,1.0,54,0.00,,,0.00,21,Wunderground v.1.15,2013-09-06 21:30:00,
2013-09-06 17:40:00,62.1,46.2,30.16,SW,216,0.0,1.0,56,0.00,,,0.00,23,Wunderground v.1.15,2013-09-06 21:40:00,
2013-09-06 17:50:00,61.9,45.5,30.16,West,267,1.0,1.0,55,0.00,,,0.00,19,Wunderground v.1.15,2013-09-06 21:50:00,
2013-09-06 18:00:00,61.7,48.1,30.16,West,267,0.0,0.0,61,0.00,,,0.00,21,Wunderground v.1.15,2013-09-06 22:00:00,
2013-09-06 18:10:00,61.3,48.6,30.15,South,169,0.0,0.0,63,0.00,,,0.00,25,Wunderground v.1.15,2013-09-06 22:10:00,
2013-09-06 18:20:00,60.8,47.3,30.15,South,171,0.0,0.0,61,0.00,,,0.00,25,Wunderground v.1.15,2013-09-06 22:20:00,
2013-09-06 18:30:00,60.4,47.3,30.16,South,169,0.0,0.0,62,0.00,,,0.00,25,Wunderground v.1.15,2013-09-06 22:30:00,
2013-09-06 18:40:00,60.1,47.5,30.16,South,171,0.0,0.0,63,0.00,,,0.00,21,Wunderground v.1.15,2013-09-06 22:40:00,
2013-09-06 18:50:00,59.7,46.7,30.16,South,169,0.0,0.0,62,0.00,,,0.00,18,Wunderground v.1.15,2013-09-06 22:50:00,
2013-09-06 19:00:00,59.3,46.7,30.15,South,171,0.0,0.0,63,0.00,,,0.00,12,Wunderground v.1.15,2013-09-06 23:00:00,
2013-09-06 19:10:00,58.9,46.3,30.16,South,169,0.0,0.0,63,0.00,,,0.00,7,Wunderground v.1.15,2013-09-06 23:10:00,
2013-09-06 19:20:00,58.5,46.4,30.15,South,170,0.0,0.0,64,0.00,,,0.00,0,Wunderground v.1.15,2013-09-06 23:20:00,
2013-09-06 19:30:00,58.0,46.3,30.15,South,169,0.0,0.0,65,0.00,,,0.00,0,Wunderground v.1.15,2013-09-06 23:30:00,
2013-09-06 19:40:00,57.5,46.6,30.15,South,171,0.0,0.0,67,0.00,,,0.00,0,Wunderground v.1.15,2013-09-06 23:40:00,
2013-09-06 19:50:00,57.0,46.9,30.15,South,171,0.0,0.0,69,0.00,,,0.00,0,Wunderground v.1.15,2013-09-06 23:50:00,
2013-09-06 20:00:00,56.5,47.6,30.15,South,171,0.0,0.0,72,0.00,,,0.00,0,Wunderground v.1.15,2013-09-07 00:00:00,
2013-09-06 20:10:00,56.1,47.6,30.15,South,169,0.0,0.0,73,0.00,,,0.00,0,Wunderground v.1.15,2013-09-07 00:10:00,
2013-09-06 20:20:00,55.7,47.9,30.16,South,171,0.0,0.0,75,0.00,,,0.00,0,Wunderground v.1.15,2013-09-07 00:20:00,
2013-09-06 20:30:00,55.4,48.3,30.15,South,170,0.0,0.0,77,0.00,,,0.00,0,Wunderground v.1.15,2013-09-07 00:30:00,
2013-09-06 20:40:00,55.1,48.0,30.16,South,170,0.0,0.0,77,0.00,,,0.00,0,Wunderground v.1.15,2013-09-07 00:40:00,
2013-09-06 20:50:00,54.8,47.7,30.15,South,171,0.0,0.0,77,0.00,,,0.00,0,Wunderground v.1.15,2013-09-07 00:50:00,
2013-09-06 21:01:00,54.6,47.9,30.15,South,171,0.0,0.0,78,0.00,,,0.00,0,Wunderground v.1.15,2013-09-07 01:01:00,
2013-09-06 21:10:00,54.4,48.0,30.15,South,170,0.0,0.0,79,0.00,,,0.00,0,Wunderground v.1.15,2013-09-07 01:10:00,
2013-09-06 21:20:00,54.1,47.7,30.15,South,171,0.0,0.0,79,0.00,,,0.00,0,Wunderground v.1.15,2013-09-07 01:20:00,
2013-09-06 21:30:00,53.8,47.4,30.15,South,169,0.0,0.0,79,0.00,,,0.00,0,Wunderground v.1.15,2013-09-07 01:30:00,
2013-09-06 21:40:00,53.7,47.7,30.15,South,171,0.0,0.0,80,0.00,,,0.00,0,Wunderground v.1.15,2013-09-07 01:40:00,
2013-09-06 21:50:00,53.5,47.8,30.15,South,170,0.0,0.0,81,0.00,,,0.00,0,Wunderground v.1.15,2013-09-07 01:50:00,
2013-09-06 22:00:00,53.3,47.6,30.14,South,169,0.0,0.0,81,0.00,,,0.00,0,Wunderground v.1.15,2013-09-07 02:00:00,
2013-09-06 22:10:00,53.2,47.8,30.15,South,171,0.0,0.0,82,0.00,,,0.00,0,Wunderground v.1.15,2013-09-07 02:10:00,
2013-09-06 22:20:00,53.0,47.7,30.14,South,169,0.0,0.0,82,0.00,,,0.00,0,Wunderground v.1.15,2013-09-07 02:20:00,
2013-09-06 22:30:00,52.7,47.7,30.14,South,171,0.0,0.0,83,0.00,,,0.00,0,Wunderground v.1.15,2013-09-07 02:30:00,
2013-09-06 22:40:00,52.4,47.7,30.14,South,171,0.0,0.0,84,0.00,,,0.00,0,Wunderground v.1.15,2013-09-07 02:40:00,
2013-09-06 22:50:00,52.2,47.5,30.14,South,171,0.0,0.0,84,0.00,,,0.00,0,Wunderground v.1.15,2013-09-07 02:50:00,
2013-09-06 23:00:00,52.0,47.6,30.14,South,171,0.0,0.0,85,0.00,,,0.00,0,Wunderground v.1.15,2013-09-07 03:00:00,
2013-09-06 23:10:00,51.8,47.4,30.14,South,170,0.0,0.0,85,0.00,,,0.00,0,Wunderground v.1.15,2013-09-07 03:10:00,
2013-09-06 23:20:00,51.6,47.5,30.14,South,170,0.0,0.0,86,0.00,,,0.00,0,Wunderground v.1.15,2013-09-07 03:20:00,
2013-09-06 23:30:00,51.5,47.5,30.14,South,170,0.0,0.0,86,0.00,,,0.00,0,Wunderground v.1.15,2013-09-07 03:30:00,
2013-09-06 23:40:00,51.4,47.7,30.14,South,170,0.0,0.0,87,0.00,,,0.00,0,Wunderground v.1.15,2013-09-07 03:40:00,
2013-09-06 23:50:00,51.3,47.6,30.14,South,170,0.0,0.0,87,0.00,,,0.00,0,Wunderground v.1.15,2013-09-07 03:50:00,